.
WxDataArchive / Data Records for 2013-04-29
2013-04-28 April 2013 2013-04-30

Data Records for Monday, 29 April 2013

Time	Temp	Chill	HIndex	Humid	Dewpt	 Wind 	HiWind	WindDir	Rain 	Barom 
-----	----	-----	------	-----	-----	------	------	-------	-----	----- 
00:00	56.0	56.0	56.0	93	54.0	0	0	---	0.00	29.846 
00:05	56.0	56.0	56.0	93	54.0	0	1	248	0.00	29.846 
00:10	55.9	55.9	55.9	93	53.9	0	1	248	0.00	29.846 
00:15	55.9	55.9	55.9	93	53.9	0	0	---	0.00	29.841 
00:20	55.9	55.9	55.9	93	53.9	0	0	---	0.00	29.841 
00:25	55.9	55.9	55.9	93	53.9	0	0	---	0.00	29.841 
00:30	55.7	55.7	55.7	93	53.7	0	0	---	0.00	29.844 
00:35	55.7	55.7	55.7	93	53.7	0	1	248	0.00	29.844 
00:40	55.7	55.7	55.7	93	53.7	0	0	---	0.00	29.844 
00:45	55.7	55.7	55.7	93	53.7	0	1	248	0.00	29.845 
00:50	55.7	55.7	55.7	93	53.7	0	1	248	0.00	29.845 
00:55	55.6	55.6	55.6	93	53.6	0	0	---	0.00	29.845 
01:00	55.6	55.6	55.6	94	53.9	0	1	248	0.00	29.847 
01:05	55.6	55.6	55.6	94	53.9	0	0	---	0.00	29.847 
01:10	55.6	55.6	55.6	94	53.9	0	1	248	0.00	29.847 
01:15	55.6	55.6	55.6	94	53.9	0	0	---	0.00	29.848 
01:20	55.6	55.6	55.6	94	53.9	0	0	---	0.01	29.848 
01:25	55.6	55.6	55.6	94	53.9	0	0	---	0.00	29.848 
01:30	55.6	55.6	55.6	94	53.9	0	0	---	0.00	29.851 
01:35	55.6	55.6	55.6	94	53.9	0	0	---	0.00	29.851 
01:40	55.6	55.6	55.6	94	53.9	0	0	---	0.00	29.851 
01:45	55.6	55.6	55.6	94	53.9	0	1	248	0.00	29.852 
01:50	55.4	55.4	55.4	94	53.7	0	1	248	0.00	29.852 
01:55	55.4	55.4	55.4	94	53.7	0	2	248	0.00	29.852 
02:00	55.4	55.4	55.4	94	53.7	0	0	---	0.00	29.856 
02:05	55.4	55.4	55.4	94	53.7	0	0	---	0.00	29.856 
02:10	55.4	55.4	55.4	94	53.7	0	0	---	0.00	29.856 
02:15	55.3	55.3	55.3	94	53.6	0	1	248	0.00	29.859 
02:20	55.3	55.3	55.3	94	53.6	0	0	---	0.00	29.859 
02:25	55.3	55.3	55.3	94	53.6	0	0	---	0.00	29.859 
02:30	55.1	55.1	55.1	94	53.4	0	0	---	0.00	29.856 
02:35	55.1	55.1	55.1	94	53.4	0	0	---	0.00	29.856 
02:40	55.1	55.1	55.1	94	53.4	0	1	248	0.00	29.856 
02:45	55.1	55.1	55.1	94	53.4	0	1	248	0.00	29.862 
02:50	55.1	55.1	55.1	94	53.4	0	1	248	0.00	29.862 
02:55	55.1	55.1	55.1	94	53.4	0	1	248	0.00	29.862 
03:00	55.1	55.1	55.1	94	53.4	0	1	248	0.00	29.855 
03:05	55.1	55.1	55.1	94	53.4	0	1	248	0.00	29.855 
03:10	55.1	55.1	55.1	94	53.4	0	1	248	0.00	29.855 
03:15	55.1	55.1	55.1	94	53.4	0	1	248	0.00	29.851 
03:20	55.1	55.1	55.1	94	53.4	0	1	248	0.00	29.851 
03:25	55.1	55.1	55.1	94	53.4	0	1	248	0.00	29.851 
03:30	55.1	55.1	55.1	94	53.4	0	1	248	0.00	29.851 
03:35	55.0	55.0	55.0	94	53.3	0	1	248	0.00	29.851 
03:40	54.8	54.8	54.8	94	53.1	0	1	248	0.00	29.851 
03:45	54.7	54.7	54.7	94	53.0	0	0	---	0.00	29.850 
03:50	54.7	54.7	54.7	94	53.0	0	0	---	0.00	29.850 
03:55	54.5	54.5	54.5	94	52.8	0	0	---	0.00	29.850 
04:00	54.4	54.4	54.4	94	52.7	0	0	---	0.00	29.853 
04:05	54.2	54.2	54.2	94	52.5	0	0	---	0.00	29.853 
04:10	54.1	54.1	54.1	94	52.4	0	0	---	0.00	29.853 
04:15	54.1	54.1	54.1	94	52.4	0	0	---	0.00	29.854 
04:20	53.9	53.9	53.9	94	52.2	0	0	---	0.00	29.854 
04:25	54.1	54.1	54.1	94	52.4	0	0	---	0.00	29.854 
04:30	54.1	54.1	54.1	95	52.7	0	0	---	0.00	29.857 
04:35	53.9	53.9	53.9	94	52.2	0	0	---	0.00	29.857 
04:40	53.9	53.9	53.9	94	52.2	0	0	---	0.00	29.857 
04:45	53.6	53.6	53.6	94	51.9	0	0	---	0.00	29.864 
04:50	53.6	53.6	53.6	95	52.2	0	0	---	0.00	29.864 
04:55	53.6	53.6	53.6	94	51.9	0	0	---	0.00	29.864 
05:00	53.5	53.5	53.5	95	52.1	0	0	---	0.00	29.868 
05:05	53.5	53.5	53.5	95	52.1	0	0	---	0.00	29.868 
05:10	53.6	53.6	53.6	95	52.2	0	0	---	0.00	29.868 
05:15	53.6	53.6	53.6	95	52.2	0	0	---	0.00	29.868 
05:20	53.6	53.6	53.6	95	52.2	0	0	---	0.00	29.868 
05:25	53.6	53.6	53.6	95	52.2	0	0	---	0.00	29.868 
05:30	53.6	53.6	53.6	95	52.2	0	0	---	0.00	29.871 
05:35	53.6	53.6	53.6	95	52.2	0	0	---	0.00	29.871 
05:40	53.8	53.8	53.8	95	52.4	0	0	---	0.00	29.871 
05:45	53.9	53.9	53.9	95	52.5	0	0	---	0.00	29.877 
05:50	54.1	54.1	54.1	95	52.7	0	0	---	0.00	29.877 
05:55	54.1	54.1	54.1	95	52.7	0	0	---	0.00	29.877 
06:00	54.2	54.2	54.2	95	52.8	0	0	---	0.00	29.880 
06:05	54.2	54.2	54.2	95	52.8	0	1	248	0.00	29.880 
06:10	54.2	54.2	54.2	95	52.8	0	0	---	0.00	29.880 
06:15	54.4	54.4	54.4	95	53.0	0	0	---	0.00	29.884 
06:20	54.4	54.4	54.4	95	53.0	0	0	---	0.00	29.884 
06:25	54.5	54.5	54.5	95	53.1	0	0	---	0.00	29.884 
06:30	54.5	54.5	54.5	95	53.1	0	0	---	0.00	29.887 
06:35	54.7	54.7	54.7	95	53.3	0	1	248	0.01	29.887 
06:40	54.7	54.7	54.7	95	53.3	0	0	---	0.00	29.887 
06:45	54.8	54.8	54.8	95	53.4	0	0	---	0.00	29.891 
06:50	54.8	54.8	54.8	96	53.7	0	1	248	0.00	29.891 
06:55	54.8	54.8	54.8	96	53.7	0	1	248	0.00	29.891 
07:00	54.8	54.8	54.8	95	53.4	0	1	248	0.00	29.897 
07:05	55.0	55.0	55.0	95	53.6	0	1	248	0.00	29.897 
07:10	55.0	55.0	55.0	95	53.6	0	0	---	0.00	29.897 
07:15	55.0	55.0	55.0	96	53.9	0	1	248	0.00	29.900 
07:20	55.0	55.0	55.0	96	53.9	0	1	248	0.00	29.900 
07:25	55.0	55.0	55.0	96	53.9	0	0	---	0.00	29.900 
07:30	55.1	55.1	55.1	96	54.0	0	2	248	0.00	29.910 
07:35	55.1	55.1	55.1	96	54.0	0	1	248	0.00	29.910 
07:40	55.1	55.1	55.1	96	54.0	0	2	248	0.00	29.910 
07:45	55.3	55.3	55.3	96	54.2	0	2	248	0.00	29.914 
07:50	55.3	55.3	55.3	96	54.2	0	1	248	0.00	29.914 
07:55	55.3	55.3	55.3	96	54.2	0	1	248	0.00	29.914 
08:00	55.4	55.4	55.4	96	54.3	0	1	248	0.00	29.918 
08:05	55.4	55.4	55.4	96	54.3	0	1	248	0.00	29.918 
08:10	55.6	55.6	55.6	95	54.2	0	1	248	0.00	29.918 
08:15	55.6	55.6	55.6	95	54.2	0	1	248	0.00	29.921 
08:20	55.7	55.7	55.7	95	54.3	0	2	248	0.00	29.921 
08:25	55.7	55.7	55.7	95	54.3	0	2	248	0.00	29.921 
08:30	55.9	55.9	55.9	95	54.5	0	2	248	0.00	29.922 
08:35	56.0	56.0	56.0	95	54.6	0	1	248	0.00	29.922 
08:40	56.2	56.2	56.2	95	54.8	0	2	248	0.00	29.922 
08:45	56.2	56.2	56.2	95	54.8	0	2	248	0.00	29.925 
08:50	56.3	56.3	56.3	95	54.9	0	2	248	0.00	29.925 
08:55	56.3	56.3	56.3	95	54.9	1	3	248	0.00	29.925 
09:00	56.5	56.5	56.5	95	55.1	0	2	248	0.00	29.927 
09:05	56.7	56.7	56.7	95	55.3	0	1	248	0.00	29.927 
09:10	56.9	56.9	56.9	94	55.2	1	3	248	0.00	29.927 
09:15	57.0	57.0	57.0	94	55.3	0	2	248	0.00	29.929 
09:20	57.0	57.0	57.0	94	55.3	1	2	248	0.00	29.929 
09:25	57.2	57.2	57.2	93	55.2	1	2	248	0.00	29.929 
09:30	57.2	57.2	57.2	93	55.2	1	2	248	0.00	29.933 
09:35	57.3	57.3	57.3	93	55.3	1	3	248	0.00	29.933 
09:40	57.3	57.3	57.3	92	55.0	1	3	248	0.00	29.933 
09:45	57.5	57.5	57.5	92	55.2	0	2	248	0.00	29.931 
09:50	57.6	57.6	57.6	92	55.3	1	3	248	0.00	29.931 
09:55	57.8	57.8	57.8	91	55.2	1	2	270	0.00	29.931 
10:00	58.0	58.0	58.0	91	55.4	1	4	270	0.00	29.931 
10:05	58.1	58.1	58.1	90	55.2	0	2	270	0.00	29.931 
10:10	58.1	58.1	58.1	90	55.2	0	2	270	0.00	29.931 
10:15	58.0	58.0	58.0	89	54.8	1	3	270	0.00	29.934 
10:20	57.8	57.8	57.8	88	54.3	1	3	270	0.00	29.934 
10:25	57.8	57.8	57.8	88	54.3	1	3	270	0.00	29.934 
10:30	57.8	57.8	57.8	88	54.3	1	3	292	0.00	29.939 
10:35	58.0	58.0	58.0	88	54.5	1	3	292	0.00	29.939 
10:40	58.0	58.0	58.0	88	54.5	1	4	292	0.00	29.939 
10:45	58.0	58.0	58.0	88	54.5	1	4	292	0.00	29.943 
10:50	58.0	58.0	58.0	87	54.1	1	3	292	0.00	29.943 
10:55	58.3	58.3	58.3	87	54.4	1	3	292	0.00	29.943 
11:00	58.3	58.3	58.3	86	54.1	1	3	292	0.00	29.943 
11:05	58.4	58.4	58.4	86	54.2	1	2	292	0.00	29.943 
11:10	58.4	58.4	58.4	85	53.9	1	3	292	0.00	29.943 
11:15	58.6	58.6	58.6	85	54.1	1	2	292	0.00	29.939 
11:20	58.9	58.9	58.9	85	54.4	0	2	292	0.00	29.939 
11:25	59.3	59.3	59.3	85	54.8	0	2	292	0.00	29.939 
11:30	59.3	59.3	59.3	83	54.1	1	3	292	0.00	29.939 
11:35	59.5	59.5	59.5	83	54.3	1	3	292	0.00	29.939 
11:40	59.9	59.9	59.9	82	54.4	0	3	292	0.00	29.939 
11:45	60.2	60.2	60.2	82	54.7	0	2	292	0.00	29.938 
11:50	60.5	60.5	60.5	81	54.6	0	2	292	0.00	29.938 
11:55	60.9	60.9	60.9	81	55.0	0	1	292	0.00	29.938 
12:00	61.2	61.2	61.2	81	55.3	0	2	292	0.00	29.944 
12:05	61.3	61.3	61.3	79	54.7	0	1	292	0.00	29.944 
12:10	61.5	61.5	61.5	79	54.9	0	2	292	0.01	29.944 
12:15	61.8	61.8	61.8	78	54.9	1	2	292	0.00	29.943 
12:20	61.8	61.8	61.8	78	54.9	0	2	292	0.00	29.943 
12:25	62.1	62.1	62.1	77	54.8	0	2	292	0.00	29.943 
12:30	62.4	62.4	62.4	77	55.1	0	3	292	0.00	29.942 
12:35	62.6	62.6	62.6	75	54.6	0	2	292	0.00	29.942 
12:40	63.1	63.1	63.1	76	55.4	1	3	292	0.00	29.942 
12:45	63.2	63.2	63.2	74	54.8	0	2	292	0.00	29.940 
12:50	63.4	63.4	63.4	73	54.6	1	2	292	0.00	29.940 
12:55	64.2	64.2	64.2	76	56.5	0	1	292	0.00	29.940 
13:00	64.8	64.8	64.8	72	55.6	1	3	315	0.00	29.929 
13:05	65.3	65.3	65.3	71	55.6	0	2	292	0.00	29.929 
13:10	65.5	65.5	65.5	70	55.4	1	3	0	0.00	29.929 
13:15	66.1	66.1	66.1	71	56.4	0	2	338	0.00	29.924 
13:20	66.9	66.9	66.9	68	56.0	0	1	338	0.00	29.924 
13:25	67.3	67.3	67.3	66	55.5	0	2	338	0.00	29.924 
13:30	67.8	67.8	67.8	69	57.2	0	3	338	0.00	29.919 
13:35	67.8	67.8	67.8	65	55.6	0	2	338	0.00	29.919 
13:40	67.8	67.8	67.8	62	54.3	1	3	338	0.00	29.919 
13:45	68.6	68.6	68.6	65	56.4	1	3	112	0.00	29.909 
13:50	68.9	68.9	68.9	62	55.3	1	3	248	0.00	29.909 
13:55	68.8	68.8	68.8	62	55.2	0	2	248	0.00	29.909 
14:00	68.3	68.3	68.3	63	55.2	1	3	248	0.00	29.910 
14:05	67.9	67.9	67.9	65	55.7	1	3	202	0.00	29.910 
14:10	68.3	68.3	68.3	63	55.2	1	4	225	0.00	29.910 
14:15	68.4	68.4	68.4	62	54.9	1	3	90	0.00	29.909 
14:20	68.3	68.3	68.3	64	55.6	0	2	135	0.00	29.909 
14:25	68.3	68.3	68.3	60	53.9	1	4	135	0.00	29.909 
14:30	68.4	68.4	68.4	62	54.9	1	3	248	0.00	29.910 
14:35	68.4	68.4	68.4	61	54.4	1	4	248	0.00	29.910 
14:40	68.3	68.3	68.3	60	53.9	1	3	248	0.00	29.910 
14:45	68.3	68.3	68.3	62	54.8	1	3	248	0.00	29.906 
14:50	68.3	68.3	68.3	60	53.9	1	4	248	0.00	29.906 
14:55	68.1	68.1	68.1	60	53.7	1	3	248	0.00	29.906 
15:00	68.3	68.3	68.3	60	53.9	1	3	270	0.00	29.906 
15:05	67.9	67.9	67.9	61	53.9	0	2	270	0.00	29.906 
15:10	67.6	67.6	67.6	60	53.2	1	3	270	0.00	29.906 
15:15	67.6	67.6	67.6	60	53.2	0	3	270	0.00	29.907 
15:20	67.6	67.6	67.6	61	53.7	0	2	270	0.00	29.907 
15:25	68.4	68.4	68.4	61	54.4	1	5	90	0.00	29.907 
15:30	69.1	69.1	69.1	58	53.7	1	4	225	0.00	29.906 
15:35	69.6	69.6	69.6	57	53.7	2	6	248	0.00	29.906 
15:40	69.6	69.6	69.6	58	54.2	1	5	270	0.00	29.906 
15:45	69.4	69.4	69.4	59	54.4	1	4	248	0.00	29.904 
15:50	69.3	69.3	69.3	59	54.3	1	4	248	0.00	29.904 
15:55	68.9	68.9	68.9	58	53.5	1	5	248	0.00	29.904 
16:00	68.8	68.8	68.8	58	53.4	1	3	248	0.00	29.900 
16:05	68.6	68.6	68.6	59	53.7	1	4	248	0.00	29.900 
16:10	68.6	68.6	68.6	59	53.7	2	6	248	0.00	29.900 
16:15	68.8	68.8	68.8	58	53.4	1	4	248	0.00	29.896 
16:20	68.8	68.8	68.8	55	52.0	2	7	248	0.00	29.896 
16:25	68.8	68.8	68.8	58	53.4	1	5	248	0.00	29.896 
16:30	68.8	68.8	68.8	60	54.3	1	4	248	0.00	29.895 
16:35	68.6	68.6	68.6	58	53.2	1	3	225	0.00	29.895 
16:40	68.4	68.4	68.4	56	52.1	2	5	248	0.00	29.895 
16:45	68.1	68.1	68.1	57	52.3	2	4	248	0.00	29.893 
16:50	68.4	68.4	68.4	59	53.5	1	3	248	0.00	29.893 
16:55	68.9	68.9	68.9	59	54.0	1	4	248	0.00	29.893 
17:00	68.9	68.9	68.9	59	54.0	2	5	248	0.00	29.892 
17:05	68.9	68.9	68.9	58	53.5	1	5	248	0.00	29.892 
17:10	69.1	69.1	69.1	57	53.2	1	4	248	0.00	29.892 
17:15	69.1	69.1	69.1	59	54.2	1	5	248	0.00	29.890 
17:20	68.8	68.8	68.8	60	54.3	2	5	248	0.00	29.890 
17:25	68.6	68.6	68.6	60	54.1	1	3	292	0.00	29.890 
17:30	68.8	68.8	68.8	63	55.7	1	3	292	0.00	29.890 
17:35	68.9	68.9	68.9	60	54.4	1	4	90	0.00	29.890 
17:40	68.8	68.8	68.8	58	53.4	2	5	90	0.00	29.890 
17:45	68.9	68.9	68.9	59	54.0	1	4	270	0.00	29.890 
17:50	68.9	68.9	68.9	57	53.0	1	6	248	0.00	29.890 
17:55	68.8	68.8	68.8	58	53.4	1	3	248	0.00	29.890 
18:00	68.8	68.8	68.8	58	53.4	1	4	68	0.00	29.891 
18:05	68.4	68.4	68.4	57	52.6	1	4	68	0.00	29.891 
18:10	68.3	68.3	68.3	56	52.0	1	6	45	0.00	29.891 
18:15	68.3	68.3	68.3	57	52.5	0	3	225	0.00	29.891 
18:20	68.3	68.3	68.3	57	52.5	1	3	225	0.01	29.891 
18:25	67.9	67.9	67.9	58	52.6	1	4	248	0.00	29.891 
18:30	67.8	67.8	67.8	59	52.9	1	3	270	0.00	29.891 
18:35	67.6	67.6	67.6	60	53.2	0	2	292	0.00	29.891 
18:40	67.6	67.6	67.6	61	53.7	0	3	22	0.00	29.891 
18:45	67.4	67.4	67.4	59	52.6	1	4	248	0.00	29.890 
18:50	67.6	67.6	67.6	60	53.2	0	2	248	0.00	29.890 
18:55	67.3	67.3	67.3	58	52.0	0	2	248	0.00	29.890 
19:00	67.1	67.1	67.1	59	52.3	1	3	248	0.00	29.890 
19:05	66.8	66.8	66.8	59	52.0	0	3	248	0.00	29.890 
19:10	66.6	66.6	66.6	60	52.3	0	2	248	0.00	29.890 
19:15	66.6	66.6	66.6	61	52.7	0	5	248	0.00	29.890 
19:20	66.4	66.4	66.4	61	52.5	1	4	68	0.00	29.890 
19:25	66.1	66.1	66.1	61	52.3	1	2	270	0.00	29.890 
19:30	65.8	65.8	65.8	61	52.0	0	2	22	0.00	29.894 
19:35	65.5	65.5	65.5	62	52.1	0	2	248	0.00	29.894 
19:40	65.5	65.5	65.5	63	52.6	1	4	248	0.00	29.894 
19:45	65.3	65.3	65.3	64	52.8	1	3	135	0.00	29.894 
19:50	65.3	65.3	65.3	63	52.4	0	3	202	0.00	29.894 
19:55	65.2	65.2	65.2	64	52.7	0	2	248	0.00	29.894 
20:00	65.0	65.0	65.0	64	52.5	0	2	248	0.00	29.893 
20:05	64.7	64.7	64.7	65	52.7	0	1	248	0.00	29.893 
20:10	64.2	64.2	64.2	64	51.8	0	2	248	0.00	29.893 
20:15	63.9	63.9	63.9	64	51.5	0	2	248	0.00	29.895 
20:20	63.5	63.5	63.5	65	51.5	0	1	248	0.00	29.895 
20:25	63.4	63.4	63.4	64	51.0	0	2	135	0.00	29.895 
20:30	63.4	63.4	63.4	64	51.0	0	1	135	0.00	29.891 
20:35	63.2	63.2	63.2	64	50.8	0	3	135	0.00	29.891 
20:40	63.2	63.2	63.2	64	50.8	0	3	112	0.00	29.891 
20:45	63.1	63.1	63.1	65	51.1	0	1	112	0.00	29.888 
20:50	62.7	62.7	62.7	65	50.8	0	1	112	0.00	29.888 
20:55	62.4	62.4	62.4	66	50.9	0	0	---	0.00	29.888 
21:00	62.1	62.1	62.1	67	51.0	0	1	112	0.00	29.895 
21:05	61.8	61.8	61.8	68	51.1	0	3	112	0.00	29.895 
21:10	61.5	61.5	61.5	68	50.8	0	0	---	0.00	29.895 
21:15	61.3	61.3	61.3	69	51.0	0	0	---	0.00	29.907 
21:20	61.0	61.0	61.0	70	51.1	0	1	112	0.00	29.907 
21:25	61.0	61.0	61.0	72	51.9	0	2	112	0.00	29.907 
21:30	61.2	61.2	61.2	72	52.1	0	3	112	0.00	29.906 
21:35	61.3	61.3	61.3	73	52.6	0	2	112	0.00	29.906 
21:40	61.3	61.3	61.3	73	52.6	1	2	112	0.00	29.906 
21:45	61.3	61.3	61.3	73	52.6	0	2	112	0.00	29.909 
21:50	61.3	61.3	61.3	74	52.9	0	1	112	0.00	29.909 
21:55	61.2	61.2	61.2	74	52.8	0	1	112	0.00	29.909 
22:00	60.9	60.9	60.9	74	52.6	0	2	112	0.00	29.916 
22:05	60.7	60.7	60.7	75	52.7	0	3	112	0.00	29.916 
22:10	60.5	60.5	60.5	75	52.5	0	2	202	0.00	29.916 
22:15	60.4	60.4	60.4	75	52.4	0	1	202	0.00	29.918 
22:20	60.2	60.2	60.2	75	52.2	0	1	202	0.00	29.918 
22:25	59.9	59.9	59.9	76	52.3	0	0	---	0.00	29.918 
22:30	59.6	59.6	59.6	76	52.0	0	0	---	0.00	29.923 
22:35	59.2	59.2	59.2	77	52.0	0	1	202	0.00	29.923 
22:40	59.0	59.0	59.0	78	52.1	0	2	202	0.00	29.923 
22:45	58.9	58.9	58.9	78	52.0	0	1	202	0.00	29.922 
22:50	58.7	58.7	58.7	78	51.9	0	1	202	0.00	29.922 
22:55	58.6	58.6	58.6	79	52.1	0	1	202	0.00	29.922 
23:00	58.4	58.4	58.4	79	51.9	0	2	202	0.00	29.920 
23:05	58.4	58.4	58.4	79	51.9	0	1	202	0.00	29.920 
23:10	58.4	58.4	58.4	79	51.9	0	2	180	0.00	29.920 
23:15	58.4	58.4	58.4	80	52.3	0	2	180	0.00	29.913 
23:20	58.4	58.4	58.4	80	52.3	0	1	180	0.00	29.913 
23:25	58.4	58.4	58.4	80	52.3	0	1	180	0.00	29.913 
23:30	58.3	58.3	58.3	80	52.2	0	1	158	0.00	29.911 
23:35	58.1	58.1	58.1	80	52.0	0	1	158	0.00	29.911 
23:40	58.0	58.0	58.0	81	52.2	0	1	158	0.00	29.911 
23:45	57.8	57.8	57.8	81	52.0	0	1	158	0.00	29.911 
23:50	57.6	57.6	57.6	81	51.8	0	2	158	0.00	29.911 
23:55	57.6	57.6	57.6	82	52.1	1	2	158	0.00	29.911 

CoCoRaHS
IN-AL-39
A2 Web Hosting
Creative Commons License
GoDaddy
search engine by freefind advanced

loaded 2018-11-21 01:22:40 • last modified 2010-11-18 10:43:29
Privacy PolicyDisclaimer
• wx.awcolley.com is powered by PmWiki v.2002016 •
• all content (unless otherwise noted) © 2018 A W Colley